Time;durP1;ratioP1;P1;durP2;ratioP2;P2;SDS_P1;SDS_P2;PMS_P1;PMS_P2;Temp;Humidity;BMP_temperature;BMP_pressure;BME280_temperature;BME280_humidity;BME280_pressure;Samples;Min_cycle;Max_cycle;Signal;HPM_P1;HPM_P2
2022/12/08 00:00:52;;;;;;;10.18;9.48;;;;;;;;;;5040967;28;20391;-59
2022/12/08 00:03:17;;;;;;;11.13;10.35;;;;;;;;;;5034815;28;20048;-59
2022/12/08 00:11:18;;;;;;;10.02;9.32;;;;;;;;;;5031336;28;20045;-59
2022/12/08 00:13:44;;;;;;;9.23;8.63;;;;;;;;;;5035614;28;20032;-59
2022/12/08 00:16:10;;;;;;;10.20;9.52;;;;;;;;;;5034249;28;20044;-59
2022/12/08 00:18:36;;;;;;;9.38;8.63;;;;;;;;;;5033967;28;20782;-60
2022/12/08 00:21:01;;;;;;;9.75;9.05;;;;;;;;;;5033912;28;20034;-59
2022/12/08 00:23:27;;;;;;;10.10;9.40;;;;;;;;;;5033743;28;20044;-60
2022/12/08 00:25:52;;;;;;;10.35;9.55;;;;;;;;;;5034630;28;20494;-59
2022/12/08 00:28:18;;;;;;;10.20;9.50;;;;;;;;;;5035803;28;20033;-59
2022/12/08 00:30:43;;;;;;;9.35;8.73;;;;;;;;;;5032271;28;20384;-60
2022/12/08 00:33:09;;;;;;;9.75;8.95;;;;;;;;;;5035391;28;20033;-59
2022/12/08 00:35:35;;;;;;;9.40;8.68;;;;;;;;;;5033091;28;20044;-60
2022/12/08 00:38:00;;;;;;;8.57;7.97;;;;;;;;;;5034479;28;20033;-59
2022/12/08 00:40:26;;;;;;;9.80;9.07;;;;;;;;;;5031634;28;20040;-59
2022/12/08 00:42:51;;;;;;;10.55;9.82;;;;;;;;;;5032312;28;20411;-59
2022/12/08 00:45:17;;;;;;;9.50;8.80;;;;;;;;;;5040108;28;20021;-59
2022/12/08 00:47:42;;;;;;;10.73;9.02;;;;;;;;;;5033152;28;20039;-59
2022/12/08 00:50:08;;;;;;;10.55;9.75;;;;;;;;;;5034683;28;20490;-59
2022/12/08 00:52:33;;;;;;;10.48;9.77;;;;;;;;;;5033718;28;20532;-59
2022/12/08 00:54:59;;;;;;;10.35;9.45;;;;;;;;;;5034759;28;20028;-60
2022/12/08 00:57:24;;;;;;;11.18;10.38;;;;;;;;;;5034897;28;20033;-60
2022/12/08 00:59:49;;;;;;;9.43;8.60;;;;;;;;;;5034477;28;20041;-60
2022/12/08 01:02:15;;;;;;;9.55;8.80;;;;;;;;;;5035804;28;20033;-60
2022/12/08 01:04:40;;;;;;;11.35;10.55;;;;;;;;;;5033664;28;20034;-60
2022/12/08 01:07:06;;;;;;;10.02;9.32;;;;;;;;;;5034304;28;20048;-59
2022/12/08 01:09:31;;;;;;;10.82;9.98;;;;;;;;;;5033589;28;20437;-59
2022/12/08 01:11:57;;;;;;;10.88;9.90;;;;;;;;;;5037951;28;20106;-60
2022/12/08 01:14:22;;;;;;;10.18;9.48;;;;;;;;;;5034835;28;20038;-60
2022/12/08 01:16:48;;;;;;;14.55;10.43;;;;;;;;;;5034683;28;20071;-59
2022/12/08 01:19:14;;;;;;;12.07;11.07;;;;;;;;;;5034659;28;20047;-60
2022/12/08 01:21:40;;;;;;;11.70;10.90;;;;;;;;;;5033700;28;20047;-59
2022/12/08 01:24:06;;;;;;;10.73;9.65;;;;;;;;;;5036628;28;20029;-59
2022/12/08 01:26:32;;;;;;;9.75;9.07;;;;;;;;;;5036245;28;20032;-60
2022/12/08 01:28:57;;;;;;;11.05;10.18;;;;;;;;;;5032898;28;20355;-60
2022/12/08 01:31:22;;;;;;;10.05;9.35;;;;;;;;;;5037227;28;20041;-59
2022/12/08 01:33:48;;;;;;;10.48;9.75;;;;;;;;;;5032898;28;20029;-59
2022/12/08 01:36:23;;;;;;;9.35;8.65;;;;;;;;;;5037498;28;20033;-59
2022/12/08 01:38:49;;;;;;;9.75;9.05;;;;;;;;;;5037079;28;20036;-60
2022/12/08 01:41:17;;;;;;;10.15;9.35;;;;;;;;;;5034522;28;20115;-60
2022/12/08 01:44:22;;;;;;;10.25;9.35;;;;;;;;;;5036104;28;20083;-60
2022/12/08 01:46:49;;;;;;;9.85;9.15;;;;;;;;;;5033145;28;20029;-59
2022/12/08 01:49:19;;;;;;;11.75;10.45;;;;;;;;;;5034001;28;20021;-60
2022/12/08 01:51:59;;;;;;;10.90;10.10;;;;;;;;;;5036027;28;20370;-59
2022/12/08 01:54:30;;;;;;;10.60;9.90;;;;;;;;;;5034734;28;20041;-60
2022/12/08 01:57:07;;;;;;;;;;;;;;;;;;5034427;28;20094;-59
2022/12/08 01:59:35;;;;;;;9.38;8.68;;;;;;;;;;5034071;28;19940;-60
2022/12/08 02:02:00;;;;;;;12.10;11.25;;;;;;;;;;5033806;28;20068;-60
2022/12/08 02:04:26;;;;;;;10.88;10.05;;;;;;;;;;5035189;28;20053;-60
2022/12/08 02:06:52;;;;;;;9.60;9.00;;;;;;;;;;5032571;28;20033;-60
2022/12/08 02:09:19;;;;;;;11.02;10.23;;;;;;;;;;5033878;28;20037;-59
2022/12/08 02:11:44;;;;;;;9.70;8.93;;;;;;;;;;5030718;28;20037;-60
2022/12/08 02:14:12;;;;;;;9.68;9.07;;;;;;;;;;5033234;28;20698;-60
2022/12/08 02:17:03;;;;;;;9.82;9.13;;;;;;;;;;5035525;28;20032;-59
2022/12/08 02:19:46;;;;;;;10.07;9.38;;;;;;;;;;5031907;28;20385;-60
2022/12/08 02:22:35;;;;;;;10.40;9.40;;;;;;;;;;5040432;28;20037;-60
2022/12/08 02:25:14;;;;;;;9.80;9.10;;;;;;;;;;5036061;28;20502;-60
2022/12/08 02:27:54;;;;;;;8.88;8.27;;;;;;;;;;5033575;28;20127;-60
2022/12/08 02:30:22;;;;;;;9.10;8.50;;;;;;;;;;5030975;28;20109;-60
2022/12/08 02:33:21;;;;;;;9.80;9.20;;;;;;;;;;5031302;28;20378;-60
2022/12/08 02:35:55;;;;;;;10.88;10.18;;;;;;;;;;5034721;28;20154;-60
2022/12/08 02:38:33;;;;;;;10.98;10.18;;;;;;;;;;5034102;28;20040;-60
2022/12/08 02:41:34;;;;;;;9.05;8.45;;;;;;;;;;5034510;28;20737;-60
2022/12/08 02:44:09;;;;;;;10.05;9.35;;;;;;;;;;5013043;28;20034;-60
2022/12/08 02:46:42;;;;;;;9.77;9.07;;;;;;;;;;5030868;28;20034;-60
2022/12/08 02:49:08;;;;;;;10.43;9.63;;;;;;;;;;5030392;28;20417;-60
2022/12/08 02:51:33;;;;;;;12.65;11.65;;;;;;;;;;5031926;28;20029;-60
2022/12/08 02:54:00;;;;;;;10.68;9.90;;;;;;;;;;5034398;28;20367;-60
2022/12/08 02:56:48;;;;;;;9.88;9.18;;;;;;;;;;5034143;28;20025;-60
2022/12/08 02:59:41;;;;;;;11.98;9.50;;;;;;;;;;5030067;28;20033;-60
2022/12/08 03:02:32;;;;;;;9.48;8.77;;;;;;;;;;5034168;28;20107;-60
2022/12/08 03:05:25;;;;;;;10.40;9.70;;;;;;;;;;5033802;28;20029;-60
2022/12/08 03:08:06;;;;;;;10.00;9.30;;;;;;;;;;5032147;28;20045;-60
2022/12/08 03:10:35;;;;;;;9.82;9.13;;;;;;;;;;5032049;28;20029;-60
2022/12/08 03:13:17;;;;;;;10.27;9.45;;;;;;;;;;5031724;28;20045;-60
2022/12/08 03:15:47;;;;;;;9.93;9.23;;;;;;;;;;5035577;28;20029;-59
2022/12/08 03:18:14;;;;;;;10.75;9.82;;;;;;;;;;5029154;28;20068;-60
2022/12/08 03:20:42;;;;;;;10.10;9.40;;;;;;;;;;5031977;28;20695;-59
2022/12/08 03:23:10;;;;;;;11.27;10.48;;;;;;;;;;5032530;28;20041;-60
2022/12/08 03:25:47;;;;;;;10.40;9.70;;;;;;;;;;5033060;28;20095;-59
2022/12/08 03:28:13;;;;;;;9.63;8.82;;;;;;;;;;5032224;28;20029;-60
2022/12/08 03:30:41;;;;;;;11.02;10.13;;;;;;;;;;5032290;28;20459;-59
2022/12/08 03:33:14;;;;;;;9.63;9.02;;;;;;;;;;5035315;28;20059;-59
2022/12/08 03:35:41;;;;;;;11.05;10.30;;;;;;;;;;5036589;28;20418;-60
2022/12/08 03:38:13;;;;;;;8.95;8.35;;;;;;;;;;5036872;28;20037;-60
2022/12/08 03:40:40;;;;;;;10.43;9.55;;;;;;;;;;5033721;28;20032;-60
2022/12/08 03:43:05;;;;;;;11.75;10.90;;;;;;;;;;5032042;28;20051;-60
2022/12/08 03:45:31;;;;;;;9.05;8.45;;;;;;;;;;5032159;28;20120;-62
2022/12/08 03:47:56;;;;;;;10.00;9.30;;;;;;;;;;5029807;28;20021;-60
2022/12/08 03:50:22;;;;;;;10.60;9.75;;;;;;;;;;5030711;28;20678;-59
2022/12/08 03:52:47;;;;;;;9.85;9.15;;;;;;;;;;5032559;28;20037;-60
2022/12/08 03:55:13;;;;;;;11.55;10.65;;;;;;;;;;5030746;28;20045;-60
2022/12/08 03:57:38;;;;;;;11.40;10.40;;;;;;;;;;5030307;28;20128;-60
2022/12/08 04:00:05;;;;;;;9.02;8.38;;;;;;;;;;5030320;28;20033;-60
2022/12/08 04:02:31;;;;;;;10.80;10.10;;;;;;;;;;5030166;28;20391;-60
2022/12/08 04:04:56;;;;;;;8.85;8.25;;;;;;;;;;5032250;28;20043;-59
2022/12/08 04:07:22;;;;;;;9.27;8.65;;;;;;;;;;5034180;28;20108;-60
2022/12/08 04:09:47;;;;;;;11.57;10.45;;;;;;;;;;5032587;28;20014;-60
2022/12/08 04:12:12;;;;;;;10.30;9.32;;;;;;;;;;5033855;28;20511;-60
2022/12/08 04:14:37;;;;;;;10.90;10.07;;;;;;;;;;5032822;28;20030;-60
2022/12/08 04:17:03;;;;;;;9.95;9.18;;;;;;;;;;5031265;28;20100;-60
2022/12/08 04:19:28;;;;;;;10.63;9.82;;;;;;;;;;5031419;28;20064;-60
2022/12/08 04:21:54;;;;;;;9.65;8.95;;;;;;;;;;5031132;28;20116;-60
2022/12/08 04:24:19;;;;;;;10.60;9.90;;;;;;;;;;5034497;28;20497;-60
2022/12/08 04:26:45;;;;;;;9.57;8.98;;;;;;;;;;5035511;28;20033;-60
2022/12/08 04:29:10;;;;;;;11.05;9.95;;;;;;;;;;5037077;28;20446;-59
2022/12/08 04:31:36;;;;;;;9.82;9.15;;;;;;;;;;5036776;28;20025;-59
2022/12/08 04:34:01;;;;;;;10.35;9.35;;;;;;;;;;5038145;28;20029;-60
2022/12/08 04:36:26;;;;;;;10.07;9.38;;;;;;;;;;5034817;28;20047;-60
2022/12/08 04:38:52;;;;;;;11.50;10.63;;;;;;;;;;5035208;28;20029;-60
2022/12/08 04:41:17;;;;;;;10.93;10.15;;;;;;;;;;5035713;28;20577;-59
2022/12/08 04:43:43;;;;;;;9.65;9.05;;;;;;;;;;5037582;28;20465;-59
2022/12/08 04:46:09;;;;;;;11.68;10.80;;;;;;;;;;5036426;28;20409;-61
2022/12/08 04:48:38;;;;;;;10.27;9.57;;;;;;;;;;5033610;28;20115;-60
2022/12/08 04:51:04;;;;;;;11.25;10.45;;;;;;;;;;5036592;28;20032;-60
2022/12/08 04:53:29;;;;;;;11.90;10.80;;;;;;;;;;5035277;28;20029;-60
2022/12/08 04:55:55;;;;;;;10.57;9.85;;;;;;;;;;5034750;28;20102;-60
2022/12/08 04:58:20;;;;;;;10.30;9.60;;;;;;;;;;5034822;28;20084;-59
2022/12/08 05:00:46;;;;;;;12.20;11.40;;;;;;;;;;5035636;28;20122;-60
2022/12/08 05:03:12;;;;;;;11.05;10.32;;;;;;;;;;5032641;28;20098;-60
2022/12/08 05:05:38;;;;;;;11.45;10.55;;;;;;;;;;5034810;28;20108;-61
2022/12/08 05:08:04;;;;;;;11.10;10.10;;;;;;;;;;5030263;28;20052;-59
2022/12/08 05:10:30;;;;;;;11.05;10.35;;;;;;;;;;5033128;28;20025;-60
2022/12/08 05:12:57;;;;;;;11.65;10.85;;;;;;;;;;5033421;28;20032;-60
2022/12/08 05:15:22;;;;;;;11.20;10.40;;;;;;;;;;5036834;28;20478;-60
2022/12/08 05:17:48;;;;;;;11.43;10.35;;;;;;;;;;5035391;28;20025;-60
2022/12/08 05:20:13;;;;;;;11.20;10.40;;;;;;;;;;5037805;28;20124;-60
2022/12/08 05:22:38;;;;;;;11.75;10.98;;;;;;;;;;5035528;28;20375;-60
2022/12/08 05:25:04;;;;;;;11.70;10.90;;;;;;;;;;5038188;28;20123;-60
2022/12/08 05:27:29;;;;;;;11.48;10.68;;;;;;;;;;5031811;28;20039;-60
2022/12/08 05:29:55;;;;;;;11.57;10.65;;;;;;;;;;5024829;28;20891;-60
2022/12/08 05:32:20;;;;;;;9.73;9.13;;;;;;;;;;5033449;28;20045;-60
2022/12/08 05:34:45;;;;;;;11.35;10.60;;;;;;;;;;5031920;28;22074;-59
2022/12/08 05:37:11;;;;;;;10.60;9.57;;;;;;;;;;5033598;28;20052;-59
2022/12/08 05:39:36;;;;;;;10.25;9.55;;;;;;;;;;5032625;28;20033;-60
2022/12/08 05:42:02;;;;;;;10.88;10.10;;;;;;;;;;5032868;28;20040;-59
2022/12/08 05:44:27;;;;;;;10.88;10.15;;;;;;;;;;5031378;28;20033;-60
2022/12/08 05:46:53;;;;;;;11.68;10.90;;;;;;;;;;5033344;28;20056;-60
2022/12/08 05:49:18;;;;;;;12.20;11.38;;;;;;;;;;5034726;28;20034;-60
2022/12/08 05:51:43;;;;;;;11.18;10.45;;;;;;;;;;5035544;28;20045;-60
2022/12/08 05:54:09;;;;;;;11.77;10.95;;;;;;;;;;5034238;28;20459;-59
2022/12/08 05:56:34;;;;;;;11.27;10.57;;;;;;;;;;5032645;28;20037;-60
2022/12/08 05:59:00;;;;;;;11.50;10.80;;;;;;;;;;5033310;28;20042;-60
2022/12/08 06:01:28;;;;;;;11.38;10.52;;;;;;;;;;5033307;28;20363;-60
2022/12/08 06:03:54;;;;;;;11.00;10.23;;;;;;;;;;5034367;28;20091;-60
2022/12/08 06:06:19;;;;;;;11.65;10.75;;;;;;;;;;5034517;28;20378;-60
2022/12/08 06:08:45;;;;;;;13.00;11.95;;;;;;;;;;5033317;28;20026;-60
2022/12/08 06:11:20;;;;;;;11.38;10.57;;;;;;;;;;5033169;28;20117;-59
2022/12/08 06:13:46;;;;;;;13.40;12.30;;;;;;;;;;5032687;28;20069;-60
2022/12/08 06:16:11;;;;;;;11.00;10.30;;;;;;;;;;5038881;28;20052;-60
2022/12/08 06:18:36;;;;;;;10.52;9.80;;;;;;;;;;5035687;28;20033;-59
2022/12/08 06:21:07;;;;;;;11.50;10.73;;;;;;;;;;5034427;28;20143;-61
2022/12/08 06:23:33;;;;;;;13.38;12.50;;;;;;;;;;5028860;28;20033;-61
2022/12/08 06:26:03;;;;;;;12.13;11.32;;;;;;;;;;5032942;28;20044;-60
2022/12/08 06:28:29;;;;;;;11.02;10.32;;;;;;;;;;5034479;28;20212;-60
2022/12/08 06:30:55;;;;;;;11.73;10.93;;;;;;;;;;5033535;28;20029;-60
2022/12/08 06:33:20;;;;;;;12.43;11.63;;;;;;;;;;5030330;28;20060;-60
2022/12/08 06:35:46;;;;;;;12.02;11.07;;;;;;;;;;5031976;28;20130;-60
2022/12/08 06:38:11;;;;;;;11.75;10.93;;;;;;;;;;5032187;28;20184;-60
2022/12/08 06:40:36;;;;;;;12.25;11.35;;;;;;;;;;5033978;28;20059;-60
2022/12/08 06:43:02;;;;;;;12.65;11.75;;;;;;;;;;5031211;28;20041;-60
2022/12/08 06:45:27;;;;;;;14.00;13.00;;;;;;;;;;5034133;28;20033;-59
2022/12/08 06:47:52;;;;;;;12.95;11.80;;;;;;;;;;5031827;28;20021;-60
2022/12/08 06:50:18;;;;;;;11.13;10.43;;;;;;;;;;5033707;28;20761;-60
2022/12/08 06:52:44;;;;;;;12.10;11.10;;;;;;;;;;5032617;28;20029;-60
2022/12/08 06:55:10;;;;;;;11.75;10.98;;;;;;;;;;5033624;28;20549;-59
2022/12/08 06:57:36;;;;;;;10.90;10.20;;;;;;;;;;5033118;28;20040;-60
2022/12/08 07:00:04;;;;;;;12.20;11.40;;;;;;;;;;5031898;28;20025;-60
2022/12/08 07:02:29;;;;;;;12.52;11.68;;;;;;;;;;5033321;28;20442;-60
2022/12/08 07:04:54;;;;;;;11.50;10.68;;;;;;;;;;5034053;28;20031;-60
2022/12/08 07:07:20;;;;;;;12.40;11.55;;;;;;;;;;5034632;28;20041;-59
2022/12/08 07:09:46;;;;;;;12.35;11.52;;;;;;;;;;5032959;28;20057;-59
2022/12/08 07:12:11;;;;;;;11.88;11.07;;;;;;;;;;5032162;28;20037;-60
2022/12/08 07:14:36;;;;;;;12.25;11.43;;;;;;;;;;5030975;28;20037;-58
2022/12/08 07:17:02;;;;;;;12.55;11.65;;;;;;;;;;5026376;28;20033;-59
2022/12/08 07:19:27;;;;;;;11.93;11.13;;;;;;;;;;5029065;28;20029;-59
2022/12/08 07:21:53;;;;;;;10.98;10.27;;;;;;;;;;5030970;28;20037;-60
2022/12/08 07:24:18;;;;;;;12.80;11.90;;;;;;;;;;5033684;28;20048;-60
2022/12/08 07:26:43;;;;;;;11.65;10.93;;;;;;;;;;5032478;28;20029;-59
2022/12/08 07:29:09;;;;;;;11.40;10.60;;;;;;;;;;5031448;28;20037;-59
2022/12/08 07:31:35;;;;;;;12.15;11.35;;;;;;;;;;5031495;28;20021;-60
2022/12/08 07:34:00;;;;;;;12.30;11.35;;;;;;;;;;5030187;28;20032;-60
2022/12/08 07:36:26;;;;;;;11.98;11.18;;;;;;;;;;5031889;28;20124;-54
2022/12/08 07:38:52;;;;;;;12.43;11.52;;;;;;;;;;5037529;28;20075;-52
2022/12/08 07:41:20;;;;;;;12.35;11.50;;;;;;;;;;5032598;28;20040;-51
2022/12/08 07:43:45;;;;;;;12.07;11.27;;;;;;;;;;5030011;28;20048;-52
2022/12/08 07:46:12;;;;;;;12.05;11.25;;;;;;;;;;5028068;28;20029;-55
2022/12/08 07:48:38;;;;;;;12.43;11.20;;;;;;;;;;5026054;28;20585;-54
2022/12/08 07:51:04;;;;;;;11.48;10.77;;;;;;;;;;5028753;28;20124;-53
2022/12/08 07:53:30;;;;;;;12.52;11.55;;;;;;;;;;5029761;28;20363;-54
2022/12/08 07:55:56;;;;;;;12.60;11.70;;;;;;;;;;5029231;28;20033;-53
2022/12/08 07:58:21;;;;;;;11.18;10.48;;;;;;;;;;5029846;28;20033;-54
2022/12/08 08:00:46;;;;;;;14.32;11.70;;;;;;;;;;5035588;28;20041;-54
2022/12/08 08:03:12;;;;;;;11.15;10.45;;;;;;;;;;5032548;28;20576;-52
2022/12/08 08:05:37;;;;;;;11.45;10.75;;;;;;;;;;5035629;28;20215;-55
2022/12/08 08:08:03;;;;;;;12.55;11.57;;;;;;;;;;5034876;28;20072;-53
2022/12/08 08:10:28;;;;;;;10.93;10.13;;;;;;;;;;5036036;28;20224;-54
2022/12/08 08:12:57;;;;;;;14.30;13.07;;;;;;;;;;5034493;28;20084;-54
2022/12/08 08:15:23;;;;;;;11.55;10.82;;;;;;;;;;5036985;28;20041;-56
2022/12/08 08:17:52;;;;;;;11.60;10.75;;;;;;;;;;5033067;28;20029;-56
2022/12/08 08:20:18;;;;;;;11.43;10.50;;;;;;;;;;5034144;28;20033;-55
2022/12/08 08:22:49;;;;;;;10.95;10.25;;;;;;;;;;5034383;28;20029;-54
2022/12/08 08:25:15;;;;;;;11.38;10.48;;;;;;;;;;5033448;28;20033;-55
2022/12/08 08:27:41;;;;;;;13.00;11.75;;;;;;;;;;5034392;28;20045;-55
2022/12/08 08:30:09;;;;;;;11.90;10.82;;;;;;;;;;5034966;28;20025;-55
2022/12/08 08:32:34;;;;;;;11.98;11.18;;;;;;;;;;5038528;28;20030;-56
2022/12/08 08:35:00;;;;;;;12.18;11.18;;;;;;;;;;5035020;28;20032;-56
2022/12/08 08:37:26;;;;;;;11.38;10.57;;;;;;;;;;5036366;28;20635;-56
2022/12/08 08:39:51;;;;;;;12.95;11.85;;;;;;;;;;5035380;28;20724;-56
2022/12/08 08:42:16;;;;;;;10.73;10.02;;;;;;;;;;5036360;28;20086;-52
2022/12/08 08:44:42;;;;;;;10.98;10.27;;;;;;;;;;5036117;28;20037;-54
2022/12/08 08:47:07;;;;;;;13.88;12.52;;;;;;;;;;5034527;28;20412;-54
2022/12/08 08:49:33;;;;;;;11.30;10.18;;;;;;;;;;5030921;28;20109;-55
2022/12/08 08:51:58;;;;;;;11.27;10.48;;;;;;;;;;5035097;28;20052;-55
2022/12/08 08:54:24;;;;;;;10.60;9.90;;;;;;;;;;5034822;28;20033;-55
2022/12/08 08:56:49;;;;;;;12.55;11.68;;;;;;;;;;5035907;28;20406;-54
2022/12/08 08:59:15;;;;;;;10.82;10.13;;;;;;;;;;5035274;28;20036;-53
2022/12/08 09:01:40;;;;;;;11.07;10.35;;;;;;;;;;5029786;28;20029;-55
2022/12/08 09:04:06;;;;;;;10.77;10.07;;;;;;;;;;5032756;28;20035;-56
2022/12/08 09:06:31;;;;;;;9.73;9.13;;;;;;;;;;5033304;28;20534;-56
2022/12/08 09:08:56;;;;;;;10.43;9.63;;;;;;;;;;5034112;28;20056;-53
2022/12/08 09:11:22;;;;;;;10.57;9.77;;;;;;;;;;5033751;28;20399;-56
2022/12/08 09:13:49;;;;;;;11.55;10.57;;;;;;;;;;5033121;28;20122;-56
2022/12/08 09:16:14;;;;;;;11.30;10.45;;;;;;;;;;5033960;28;20036;-54
2022/12/08 09:18:40;;;;;;;12.25;11.45;;;;;;;;;;5032727;28;20383;-54
2022/12/08 09:21:08;;;;;;;9.60;9.00;;;;;;;;;;5034495;28;20123;-52
2022/12/08 09:23:34;;;;;;;9.82;9.15;;;;;;;;;;5034372;28;20039;-54
2022/12/08 09:26:01;;;;;;;10.07;9.38;;;;;;;;;;5033661;28;20024;-54
2022/12/08 09:28:26;;;;;;;11.30;10.50;;;;;;;;;;5032873;28;20033;-53
2022/12/08 09:30:51;;;;;;;12.23;11.38;;;;;;;;;;5036523;28;20033;-56
2022/12/08 09:33:17;;;;;;;11.45;10.65;;;;;;;;;;5035271;28;20033;-55
2022/12/08 09:35:42;;;;;;;11.32;10.52;;;;;;;;;;5033373;28;20075;-55
2022/12/08 09:38:07;;;;;;;10.32;9.55;;;;;;;;;;5031405;28;20034;-55
2022/12/08 09:40:41;;;;;;;9.80;9.07;;;;;;;;;;5031981;28;20028;-55
2022/12/08 09:43:20;;;;;;;10.98;10.18;;;;;;;;;;5033537;28;20108;-56
2022/12/08 09:45:47;;;;;;;9.45;8.82;;;;;;;;;;5032711;28;20494;-55
2022/12/08 09:48:19;;;;;;;9.18;8.57;;;;;;;;;;5034095;28;20061;-54
2022/12/08 09:50:51;;;;;;;10.80;10.07;;;;;;;;;;5033365;28;20041;-55
2022/12/08 09:53:28;;;;;;;9.88;9.18;;;;;;;;;;5034893;28;20033;-56
2022/12/08 09:56:09;;;;;;;10.63;9.77;;;;;;;;;;5032907;28;20033;-55
2022/12/08 09:58:38;;;;;;;;;;;;;;;;;;5032168;28;20033;-56
2022/12/08 10:01:03;;;;;;;19.48;18.27;;;;;;;;;;5034394;28;19947;-56
2022/12/08 10:03:29;;;;;;;10.00;9.30;;;;;;;;;;5033711;28;20398;-55
2022/12/08 10:06:06;;;;;;;10.85;10.07;;;;;;;;;;5034742;28;20522;-56
2022/12/08 10:08:54;;;;;;;9.13;8.52;;;;;;;;;;5031004;28;20055;-56
2022/12/08 10:11:30;;;;;;;9.70;9.02;;;;;;;;;;5027475;28;20076;-57
2022/12/08 10:14:30;;;;;;;10.43;9.73;;;;;;;;;;5032645;28;20108;-54
2022/12/08 10:17:02;;;;;;;8.95;8.35;;;;;;;;;;5030810;28;20692;-55
2022/12/08 10:19:27;;;;;;;10.85;10.10;;;;;;;;;;5033273;28;20040;-54
2022/12/08 10:21:55;;;;;;;9.88;9.23;;;;;;;;;;5031560;28;20025;-56
2022/12/08 10:24:24;;;;;;;12.15;10.70;;;;;;;;;;5033932;28;20055;-55
2022/12/08 10:26:50;;;;;;;10.68;9.95;;;;;;;;;;5033184;28;20064;-54
2022/12/08 10:29:15;;;;;;;10.57;9.88;;;;;;;;;;5031987;28;20513;-54
2022/12/08 10:31:41;;;;;;;9.60;8.90;;;;;;;;;;5033924;28;20625;-55
2022/12/08 10:34:18;;;;;;;11.38;10.55;;;;;;;;;;5031411;28;20117;-55
2022/12/08 10:36:56;;;;;;;11.15;10.38;;;;;;;;;;5033478;28;20485;-56
2022/12/08 10:39:31;;;;;;;9.93;9.32;;;;;;;;;;5033530;28;20055;-55
2022/12/08 10:42:20;;;;;;;10.15;9.45;;;;;;;;;;5031391;28;20036;-55
2022/12/08 10:44:56;;;;;;;11.60;10.80;;;;;;;;;;5030269;28;20080;-55
2022/12/08 10:47:24;;;;;;;9.95;9.23;;;;;;;;;;5033030;28;20132;-57
2022/12/08 10:50:07;;;;;;;11.13;10.10;;;;;;;;;;5031748;28;21011;-54
2022/12/08 10:52:39;;;;;;;11.00;10.20;;;;;;;;;;5032376;28;20104;-56
2022/12/08 10:55:39;;;;;;;9.32;8.73;;;;;;;;;;5036473;28;20056;-57
2022/12/08 10:58:04;;;;;;;10.82;10.13;;;;;;;;;;5030591;28;20037;-54
2022/12/08 11:00:31;;;;;;;10.32;9.63;;;;;;;;;;5031484;28;20048;-58
2022/12/08 11:03:01;;;;;;;9.40;8.80;;;;;;;;;;5032421;28;20039;-57
2022/12/08 11:05:31;;;;;;;11.73;10.93;;;;;;;;;;5032155;28;20090;-57
2022/12/08 11:07:57;;;;;;;11.55;10.75;;;;;;;;;;5035521;28;20033;-56
2022/12/08 11:10:35;;;;;;;9.52;8.90;;;;;;;;;;5031985;28;20503;-57
2022/12/08 11:13:05;;;;;;;11.98;11.07;;;;;;;;;;5032282;28;20367;-54
2022/12/08 11:15:36;;;;;;;11.32;10.52;;;;;;;;;;5035586;28;20037;-58
2022/12/08 11:18:21;;;;;;;11.27;10.00;;;;;;;;;;5033685;28;20110;-54
2022/12/08 11:20:55;;;;;;;12.52;11.65;;;;;;;;;;5033352;28;20186;-56
2022/12/08 11:23:24;;;;;;;11.80;10.98;;;;;;;;;;5032869;28;20509;-55
2022/12/08 11:25:52;;;;;;;11.32;9.95;;;;;;;;;;5031067;28;20490;-55
2022/12/08 11:28:22;;;;;;;10.15;9.40;;;;;;;;;;5032260;28;20913;-55
2022/12/08 11:30:56;;;;;;;12.82;11.93;;;;;;;;;;5030302;28;20134;-60
2022/12/08 11:33:26;;;;;;;11.63;10.63;;;;;;;;;;5033119;28;20045;-55
2022/12/08 11:36:05;;;;;;;11.20;10.50;;;;;;;;;;5032313;28;20391;-57
2022/12/08 11:38:32;;;;;;;10.68;9.98;;;;;;;;;;5034362;28;20095;-56
2022/12/08 11:41:06;;;;;;;11.48;10.77;;;;;;;;;;5033543;28;20028;-57
2022/12/08 11:43:34;;;;;;;10.38;9.68;;;;;;;;;;5033362;28;20578;-57
2022/12/08 11:46:26;;;;;;;10.68;9.98;;;;;;;;;;5034049;28;20025;-55
2022/12/08 11:49:01;;;;;;;10.85;9.82;;;;;;;;;;5027131;28;20480;-56
2022/12/08 11:51:49;;;;;;;12.15;11.35;;;;;;;;;;5031280;28;20112;-54
2022/12/08 11:54:39;;;;;;;10.95;10.25;;;;;;;;;;5031957;28;20037;-57
2022/12/08 11:57:10;;;;;;;12.15;11.35;;;;;;;;;;5032072;28;20112;-57
2022/12/08 11:59:43;;;;;;;10.75;10.05;;;;;;;;;;5030513;28;20026;-54
2022/12/08 12:02:24;;;;;;;12.57;11.70;;;;;;;;;;5032103;28;20037;-54
2022/12/08 12:04:56;;;;;;;10.95;10.25;;;;;;;;;;5031241;28;20044;-55
2022/12/08 12:07:36;;;;;;;10.85;10.13;;;;;;;;;;5034546;28;20037;-52
2022/12/08 12:10:16;;;;;;;12.25;11.45;;;;;;;;;;5032886;28;20080;-55
2022/12/08 12:13:00;;;;;;;11.02;10.25;;;;;;;;;;5032383;28;20052;-55
2022/12/08 12:15:53;;;;;;;10.88;10.18;;;;;;;;;;5031741;28;20525;-55
2022/12/08 12:18:39;;;;;;;9.80;9.20;;;;;;;;;;5028616;28;20029;-55
2022/12/08 12:21:22;;;;;;;11.02;10.32;;;;;;;;;;5030188;28;20044;-55
2022/12/08 12:24:07;;;;;;;11.95;11.05;;;;;;;;;;5031756;28;20028;-56
2022/12/08 12:26:36;;;;;;;11.50;10.80;;;;;;;;;;5031493;28;20132;-57
2022/12/08 12:29:17;;;;;;;11.85;10.82;;;;;;;;;;5031117;28;20132;-56
2022/12/08 12:31:50;;;;;;;11.50;10.70;;;;;;;;;;5028334;28;20033;-55
2022/12/08 12:34:17;;;;;;;10.60;9.95;;;;;;;;;;5032750;28;20423;-53
2022/12/08 12:37:02;;;;;;;11.23;10.52;;;;;;;;;;5032443;28;20065;-56
2022/12/08 12:39:32;;;;;;;11.63;10.93;;;;;;;;;;5046606;28;20036;-52
2022/12/08 12:42:00;;;;;;;11.40;10.60;;;;;;;;;;5028591;28;20021;-53
2022/12/08 12:44:28;;;;;;;10.98;10.27;;;;;;;;;;5032268;28;20090;-55
2022/12/08 12:47:00;;;;;;;10.70;10.00;;;;;;;;;;5031544;28;20068;-54
2022/12/08 12:49:48;;;;;;;11.10;10.40;;;;;;;;;;5036274;28;20043;-54
2022/12/08 12:52:14;;;;;;;11.75;10.98;;;;;;;;;;5035055;28;20048;-56
2022/12/08 12:55:08;;;;;;;10.70;10.00;;;;;;;;;;5034828;28;20029;-56
2022/12/08 12:57:48;;;;;;;11.80;10.63;;;;;;;;;;5028952;28;20056;-55
2022/12/08 13:00:22;;;;;;;12.55;11.75;;;;;;;;;;5033897;28;20060;-56
2022/12/08 13:02:48;;;;;;;11.15;10.45;;;;;;;;;;5034783;28;20123;-54
2022/12/08 13:05:25;;;;;;;11.02;10.23;;;;;;;;;;5033511;28;20033;-57
2022/12/08 13:08:01;;;;;;;10.98;10.20;;;;;;;;;;5015417;28;20025;-54
2022/12/08 13:10:38;;;;;;;11.32;10.52;;;;;;;;;;5031972;28;20521;-57
2022/12/08 13:13:08;;;;;;;10.70;10.00;;;;;;;;;;5034327;28;20367;-55
2022/12/08 13:15:54;;;;;;;10.57;9.88;;;;;;;;;;5036353;28;20028;-57
2022/12/08 13:18:28;;;;;;;9.95;9.30;;;;;;;;;;5032868;28;20057;-57
2022/12/08 13:21:03;;;;;;;9.98;9.38;;;;;;;;;;5033425;28;20132;-58
2022/12/08 13:23:37;;;;;;;12.88;9.98;;;;;;;;;;5034168;28;20132;-52
2022/12/08 13:26:09;;;;;;;10.63;9.93;;;;;;;;;;5036458;28;20120;-54
2022/12/08 13:29:00;;;;;;;10.10;9.48;;;;;;;;;;5033966;28;20036;-57
2022/12/08 13:31:46;;;;;;;9.98;9.35;;;;;;;;;;5031515;28;20033;-52
2022/12/08 13:34:17;;;;;;;11.13;10.32;;;;;;;;;;5029533;28;20719;-56
2022/12/08 13:36:50;;;;;;;10.80;10.10;;;;;;;;;;5034539;28;20036;-54
2022/12/08 13:39:39;;;;;;;11.25;10.45;;;;;;;;;;5031803;28;20588;-62
2022/12/08 13:42:32;;;;;;;10.57;9.90;;;;;;;;;;5033991;28;20118;-55
2022/12/08 13:45:10;;;;;;;10.13;9.43;;;;;;;;;;5033193;28;20037;-57
2022/12/08 13:47:55;;;;;;;12.07;11.27;;;;;;;;;;5031664;28;20137;-50
2022/12/08 13:50:27;;;;;;;9.88;9.27;;;;;;;;;;5049431;28;20026;-54
2022/12/08 13:53:28;;;;;;;11.88;11.13;;;;;;;;;;5033896;28;20032;-54
2022/12/08 13:55:57;;;;;;;10.85;10.18;;;;;;;;;;5041741;28;20028;-54
2022/12/08 13:58:30;;;;;;;10.77;10.10;;;;;;;;;;5032174;28;20132;-56
2022/12/08 14:01:06;;;;;;;11.27;10.57;;;;;;;;;;5032580;28;20394;-57
2022/12/08 14:03:52;;;;;;;9.95;9.35;;;;;;;;;;5031882;28;20091;-56
2022/12/08 14:06:25;;;;;;;11.32;10.57;;;;;;;;;;5033038;28;20125;-56
2022/12/08 14:08:54;;;;;;;9.90;9.20;;;;;;;;;;5033202;28;20034;-50
2022/12/08 14:11:42;;;;;;;10.23;9.52;;;;;;;;;;5033333;28;20036;-54
2022/12/08 14:14:17;;;;;;;10.95;10.23;;;;;;;;;;5034439;28;20247;-50
2022/12/08 14:16:49;;;;;;;10.27;9.57;;;;;;;;;;5034557;28;20600;-52
2022/12/08 14:19:18;;;;;;;10.98;10.27;;;;;;;;;;5031729;28;20526;-54
2022/12/08 14:21:54;;;;;;;10.32;9.73;;;;;;;;;;5033387;28;20285;-61
2022/12/08 14:24:21;;;;;;;10.23;9.52;;;;;;;;;;5041251;28;20032;-61
2022/12/08 14:26:50;;;;;;;10.00;9.40;;;;;;;;;;5042283;28;20033;-61
2022/12/08 14:29:46;;;;;;;10.57;9.80;;;;;;;;;;5033696;28;20035;-60
2022/12/08 14:32:22;;;;;;;10.32;9.73;;;;;;;;;;5031244;28;20037;-62
2022/12/08 14:34:53;;;;;;;9.32;8.73;;;;;;;;;;5034801;28;20081;-61
2022/12/08 14:37:19;;;;;;;9.85;9.25;;;;;;;;;;5034513;28;20043;-61
2022/12/08 14:39:45;;;;;;;10.23;9.52;;;;;;;;;;5030486;28;20029;-61
2022/12/08 14:42:21;;;;;;;9.82;9.23;;;;;;;;;;5030980;28;20044;-61
2022/12/08 14:44:46;;;;;;;10.68;9.98;;;;;;;;;;5034631;28;20171;-61
2022/12/08 14:47:19;;;;;;;11.23;10.52;;;;;;;;;;5041329;28;20036;-62
2022/12/08 14:49:46;;;;;;;10.68;9.82;;;;;;;;;;5030288;28;20370;-59